• Join FlightAware (Why Join?)
  • Login
  • US Flag 
08:23PM EDT


 

Airport Tracker/Info


-or-


 

Live Flight TrackerFlight Track Log ✈ CPZ5702 ✈ 08-May-2013 ✈ KROC - KLGA

Flight Track Log - Related Links

Times and Time Zones

All times are in EDT time to prevent confusion due to time zone crossing. See the CPZ5702 flight status page for this flight to view local times or setup timezone preferences in your user account.

Time Position Orientation Groundspeed Altitude Reporting Facility
EDT Latitude Longitude Course Direction KTS MPH feet Rate Location/Type
01:27PM 42.7186 -76.7561 128° Southeast 398 458 21,000  Level Boston Center
01:28PM 42.6631 -76.6222 119° Southeast 418 481 21,000  Level Boston Center
01:29PM 42.6394 -76.4739 102° East 404 465 21,000  Level Boston Center
01:30PM 42.6194 -76.3286 101° East 399 459 21,000  Level Boston Center
01:31PM 42.5956 -76.1661 101° East 394 453 21,000  Level Boston Center
01:32PM 42.3311 -76.3387 128° Southeast  Level Estimated
01:33PM 42.5775 -76.0186 99° East 394 453 21,000  Level Boston Center
01:34PM 42.5517 -75.8422 101° East 394 453 21,000  Level Boston Center
01:35PM 42.5308 -75.6972 101° East 394 453 21,000  Level Boston Center
01:36PM 42.5100 -75.5525 101° East 394 453 21,000  Level Boston Center
01:37PM 42.4908 -75.4081 100° East 394 453 21,000  Level Boston Center
01:38PM 42.4697 -75.2578 101° East 394 453 21,000  Level Boston Center
01:39PM 42.4250 -75.1206 114° Southeast 394 453 21,000  Level Boston Center
01:40PM 42.3758 -74.9892 117° Southeast 394 453 21,000  Level Boston Center
01:41PM 42.3247 -74.8553 117° Southeast 394 453 21,000  Level Boston Center
01:42PM 42.2753 -74.7242 117° Southeast 394 453 21,000  Level Boston Center
01:43PM 42.2258 -74.5906 117° Southeast 399 459 21,000 -180 Level Boston Center
01:44PM 42.1761 -74.4572 117° Southeast 399 459 20,700 -1,140 Descending Boston Center
01:45PM 42.1364 -74.3467 116° Southeast 389 448 18,800 -1,380 Descending Boston Center
01:46PM 42.0631 -74.2467 135° Southeast 335 386 18,000 -420 Descending Boston Center
01:47PM 41.9928 -74.2056 156° South 335 386 18,000  Level Boston Center
01:48PM 41.8894 -74.1467 157° South 341 392 18,000 -300 Level Boston Center
01:49PM 41.8006 -74.0942 156° South 341 392 17,500 -840 Descending Boston Center
01:50PM 41.7322 -74.0564 158° South 341 392 16,400 -1,500 Descending Boston Center
01:51PM 41.6331 -73.9956 155° Southeast 333 383 14,500 -1,740 Descending Boston Center
01:51PM 41.5833 -73.9667 157° South 326 375 13,800 -1,560 Descending New York TRACON
01:52PM 41.5167 -73.9167 151° Southeast 321 369 12,200 -1,560 Descending New York TRACON
01:53PM 41.4333 -73.8833 163° South 308 354 10,700 -1,500 Descending New York TRACON
01:54PM 41.3667 -73.8167 143° Southeast 281 323 9,300 -1,380 Descending New York TRACON
01:55PM 41.3000 -73.7667 151° Southeast 273 314 8,000 -660 Descending New York TRACON
01:56PM 41.2333 -73.7000 143° Southeast 274 315 8,000 -120 Level New York TRACON
01:57PM 41.1667 -73.6500 151° Southeast 276 318 7,800 -1,020 Descending New York TRACON
01:58PM 41.1000 -73.6833 201° Southwest 271 312 6,000 -1,440 Descending New York TRACON
01:59PM 41.0333 -73.7167 201° Southwest 280 322 5,000 -840 Descending New York TRACON
02:00PM 40.9833 -73.7833 225° Southwest 274 315 4,400 -540 Descending New York TRACON
02:01PM 40.9500 -73.8667 242° Southwest 265 305 4,000 -240 Descending New York TRACON
02:02PM 40.8833 -73.9333 217° Southwest 270 311 4,000  Level New York TRACON
02:03PM 40.8333 -73.9667 207° Southwest 243 280 4,000  Level New York TRACON
02:04PM 40.7833 -73.9833 194° South 191 220 4,000  Level New York TRACON
02:06PM 40.6833 -74.0500 207° Southwest 191 220 4,000 -240 Level New York TRACON
02:07PM 40.6333 -74.0167 153° Southeast 212 244 3,300 -1,020 Descending New York TRACON
02:08PM 40.6667 -73.9667 49° Northeast 191 220 2,000 -840 Descending New York TRACON
02:09PM 40.7000 -73.9500 21° North 152 175 1,700 -600 Descending New York TRACON
02:10PM 40.7333 -73.9167 37° Northeast 132 152 900 -720 Descending New York TRACON
02:11PM 40.7667 -73.9000 21° North 129 148 300 -600 Descending New York TRACON